This is the latest recevied weather packets stored in our database for station/object AA6HF. If no packets are shown the sender has not sent any weather packets the latest 10 day(s).
| Time | Temp. | Humidity | Pressure | Rain* | Wind** | Luminosity | Snow |
|---|---|---|---|---|---|---|---|
| 1777863936 | 22.78° C | 34% | 1005.3 hPa | 0 mm | - | - | - |
| 1777863636 | 22.78° C | 34% | 1005.5 hPa | 0 mm | - | - | - |
| 1777863336 | 23.33° C | 34% | 1005.4 hPa | 0 mm | - | - | - |
| 1777863036 | 23.33° C | 34% | 1005.4 hPa | 0 mm | - | - | - |
| 1777862736 | 23.33° C | 34% | 1005.4 hPa | 0 mm | - | - | - |
| 1777862436 | 23.33° C | 35% | 1005.2 hPa | 0 mm | - | - | - |
| 1777862136 | 23.33° C | 35% | 1005.1 hPa | 0 mm | - | - | - |
| 1777861836 | 23.89° C | 35% | 1005 hPa | 0 mm | - | - | - |
| 1777861536 | 23.89° C | 35% | 1005 hPa | 0 mm | - | - | - |
| 1777861236 | 23.89° C | 34% | 1004.8 hPa | 0 mm | - | - | - |
| 1777860936 | 24.44° C | 34% | 1004.7 hPa | 0 mm | - | - | - |
| 1777860636 | 25° C | 33% | 1004.7 hPa | 0 mm | - | - | - |
| 1777860336 | 25° C | 33% | 1004.7 hPa | 0 mm | - | - | - |
| 1777860036 | 25° C | 33% | 1004.6 hPa | 0 mm | - | - | - |
| 1777859736 | 26.11° C | 30% | 1004.8 hPa | 0 mm | - | - | - |
| 1777859436 | 26.67° C | 27% | 1004.8 hPa | 0 mm | - | - | - |
| 1777859136 | 27.22° C | 22% | 1004.4 hPa | 0 mm | - | - | - |
| 1777858836 | 27.22° C | 22% | 1004.4 hPa | 0 mm | - | - | - |
| 1777858536 | 27.22° C | 22% | 1004.1 hPa | 0 mm | - | - | - |
| 1777858236 | 26.67° C | 22% | 1004.2 hPa | 0 mm | - | - | - |
| 1777857936 | 26.67° C | 28% | 1004.2 hPa | 0 mm | - | - | - |
| 1777857636 | 26.67° C | 30% | 1004.5 hPa | 0 mm | - | - | - |
| 1777857336 | 26.67° C | 31% | 1004.5 hPa | 0 mm | - | - | - |
| 1777857036 | 27.22° C | 30% | 1004.5 hPa | 0 mm | - | - | - |
| 1777856736 | 27.22° C | 29% | 1004.4 hPa | 0 mm | - | - | - |
* Rain latest hour (hover to see other rain measurements)
** Current wind speed in m/s (hover to see current wind gust speed)